Time;durP1;ratioP1;P1;durP2;ratioP2;P2;SDS_P1;SDS_P2;PMS_P1;PMS_P2;Temp;Humidity;BMP_temperature;BMP_pressure;BME280_temperature;BME280_humidity;BME280_pressure;Samples;Min_cycle;Max_cycle;Signal;HPM_P1;HPM_P2
2022/04/09 00:09:46;;;;;;;5.68;1.50;;;8.60;99.90;;;;;;19835355;29;20047;-49
2022/04/09 00:19:49;;;;;;;5.05;1.45;;;9.00;99.90;;;;;;19799884;29;20448;-47
2022/04/09 00:29:52;;;;;;;9.27;1.55;;;9.00;99.90;;;;;;19844721;29;20066;-57
2022/04/09 00:39:55;;;;;;;5.15;1.60;;;8.90;99.90;;;;;;19814034;29;20082;-53
2022/04/09 00:49:59;;;;;;;9.32;1.85;;;8.90;99.90;;;;;;19840129;29;20051;-49
2022/04/09 01:00:09;;;;;;;10.13;1.90;;;8.80;99.90;;;;;;19865593;29;20119;-48
2022/04/09 01:10:12;;;;;;;6.93;2.08;;;8.80;99.90;;;;;;19844102;29;20047;-58
2022/04/09 01:20:23;;;;;;;5.80;1.70;;;8.70;99.90;;;;;;19854445;29;20062;-50
2022/04/09 01:30:28;;;;;;;7.40;1.95;;;8.70;99.90;;;;;;19856602;29;20076;-57
2022/04/09 01:40:31;;;;;;;5.60;1.30;;;8.70;99.90;;;;;;19855788;29;20043;-57
2022/04/09 01:50:34;;;;;;;3.75;0.98;;;8.80;99.90;;;;;;19861983;29;20108;-57
2022/04/09 02:00:38;;;;;;;6.18;1.00;;;8.60;99.90;;;;;;19853664;29;20051;-51
2022/04/09 02:10:44;;;;;;;6.68;1.58;;;8.60;99.90;;;;;;19852349;29;20151;-53
2022/04/09 02:20:46;;;;;;;3.97;1.10;;;8.60;99.90;;;;;;19807950;29;20152;-57
2022/04/09 02:30:49;;;;;;;2.38;0.60;;;8.60;99.90;;;;;;19842872;29;20636;-57
2022/04/09 02:41:02;;;;;;;2.67;0.90;;;8.60;99.90;;;;;;19872436;29;20626;-51
2022/04/09 02:51:06;;;;;;;2.22;0.50;;;8.30;99.90;;;;;;19852166;29;20116;-48
2022/04/09 03:01:11;;;;;;;2.13;0.50;;;8.30;99.90;;;;;;19863911;29;20447;-58
2022/04/09 03:11:14;;;;;;;1.23;0.20;;;8.60;99.90;;;;;;19818154;29;20087;-57
2022/04/09 03:21:16;;;;;;;1.15;0.10;;;8.90;99.90;;;;;;19806619;29;20143;-48
2022/04/09 03:31:20;;;;;;;3.30;0.40;;;9.20;97.90;;;;;;19845113;29;20092;-57
2022/04/09 03:41:22;;;;;;;1.45;0.20;;;9.30;95.50;;;;;;19853411;29;20047;-50
2022/04/09 03:51:36;;;;;;;1.20;0.25;;;9.20;95.20;;;;;;19801002;29;20066;-57
2022/04/09 04:01:42;;;;;;;1.20;0.20;;;9.10;95.90;;;;;;19798374;29;20043;-57
2022/04/09 04:11:47;;;;;;;4.25;0.30;;;9.00;96.40;;;;;;19800734;29;20124;-47
2022/04/09 04:21:50;;;;;;;3.17;0.50;;;8.50;97.20;;;;;;19799578;29;20051;-50
2022/04/09 04:31:53;;;;;;;1.15;0.20;;;8.10;99.40;;;;;;19830978;29;20066;-57
2022/04/09 04:41:56;;;;;;;1.48;0.30;;;8.20;98.70;;;;;;19873471;29;20107;-51
2022/04/09 04:52:00;;;;;;;2.38;0.30;;;7.90;97.00;;;;;;19857399;29;20051;-57
2022/04/09 05:02:06;;;;;;;1.85;0.38;;;7.80;98.50;;;;;;19819187;29;20080;-57
2022/04/09 05:12:09;;;;;;;1.45;0.30;;;7.40;98.90;;;;;;19858411;29;20066;-48
2022/04/09 05:22:18;;;;;;;3.78;0.43;;;7.30;98.80;;;;;;19815130;29;20042;-48
2022/04/09 05:32:36;;;;;;;4.40;0.43;;;7.10;99.90;;;;;;19845839;29;20069;-47
2022/04/09 05:42:39;;;;;;;2.28;0.30;;;7.10;99.90;;;;;;19848844;29;20499;-50
2022/04/09 05:52:42;;;;;;;2.92;0.40;;;7.20;99.90;;;;;;19835730;29;20101;-58
2022/04/09 06:02:47;;;;;;;2.08;0.50;;;7.20;99.90;;;;;;19878615;29;20046;-50
2022/04/09 06:13:02;;;;;;;7.20;0.68;;;7.40;99.90;;;;;;19882651;29;20378;-49
2022/04/09 06:23:06;;;;;;;4.78;0.77;;;7.40;99.90;;;;;;19826600;29;20066;-48
2022/04/09 06:33:10;;;;;;;7.97;1.13;;;7.50;99.90;;;;;;19806082;29;20070;-52
2022/04/09 06:43:13;;;;;;;4.28;1.10;;;7.50;99.90;;;;;;19825214;29;20047;-52
2022/04/09 06:53:39;;;;;;;4.00;0.95;;;8.60;99.90;;;;;;19807394;29;20133;-54
2022/04/09 07:03:43;;;;;;;5.47;1.10;;;9.70;99.90;;;;;;19878845;29;20104;-56
2022/04/09 07:13:46;;;;;;;5.20;1.50;;;11.00;99.90;;;;;;19836601;29;20039;-55
2022/04/09 07:23:48;;;;;;;7.28;1.60;;;11.80;99.90;;;;;;19803763;29;20564;-55
2022/04/09 07:33:51;;;;;;;4.50;1.15;;;12.30;99.90;;;;;;19854057;29;20043;-56
2022/04/09 07:43:53;;;;;;;6.25;1.38;;;12.60;99.90;;;;;;19877186;29;20038;-55
2022/04/09 07:53:56;;;;;;;4.45;1.30;;;12.80;99.90;;;;;;19814520;29;20105;-57
2022/04/09 08:03:59;;;;;;;5.45;1.65;;;12.60;99.90;;;;;;19801707;29;20035;-56
2022/04/09 08:14:02;;;;;;;4.38;1.70;;;12.80;99.90;;;;;;19815293;29;20092;-58
2022/04/09 08:24:05;;;;;;;9.10;2.15;;;12.70;99.90;;;;;;19850324;29;20767;-51
2022/04/09 08:34:07;;;;;;;8.02;2.45;;;12.40;99.90;;;;;;19873502;29;20066;-58
2022/04/09 08:44:10;;;;;;;8.73;2.53;;;12.90;99.90;;;;;;19874595;29;20043;-54
2022/04/09 08:54:14;;;;;;;7.45;3.10;;;12.20;99.90;;;;;;19831960;29;20079;-52
2022/04/09 09:04:18;;;;;;;2.33;1.08;;;12.00;99.90;;;;;;19813249;29;20066;-52
2022/04/09 09:14:25;;;;;;;1.33;0.40;;;11.10;99.90;;;;;;19832934;29;20058;-59
2022/04/09 09:24:30;;;;;;;0.50;0.25;;;9.60;99.90;;;;;;19870656;29;20042;-58
2022/04/09 09:34:34;;;;;;;0.60;0.20;;;9.70;99.90;;;;;;19885035;29;20142;-53
2022/04/09 09:44:43;;;;;;;0.38;0.10;;;10.90;99.90;;;;;;19884867;29;20514;-53
2022/04/09 09:54:57;;;;;;;1.58;0.20;;;11.20;96.10;;;;;;19845911;29;20416;-58
2022/04/09 10:05:01;;;;;;;0.40;0.10;;;11.40;95.00;;;;;;19808935;29;20035;-54
2022/04/09 10:15:04;;;;;;;1.92;0.10;;;11.40;92.70;;;;;;19861029;29;20039;-54
2022/04/09 10:25:07;;;;;;;0.28;0.05;;;10.70;91.20;;;;;;19807986;29;20074;-54
2022/04/09 10:35:38;;;;;;;0.65;0.10;;;10.70;91.20;;;;;;19806226;29;20131;-53
2022/04/09 10:46:00;;;;;;;3.47;0.10;;;10.10;92.50;;;;;;19806940;29;20080;-58
2022/04/09 10:56:11;;;;;;;0.10;0.10;;;10.00;94.20;;;;;;19863344;29;20392;-49
2022/04/09 11:06:38;;;;;;;1.10;0.10;;;9.90;92.30;;;;;;19805988;29;20097;-58
2022/04/09 11:16:41;;;;;;;0.10;0.10;;;10.10;92.90;;;;;;19835619;29;20103;-53
2022/04/09 11:26:56;;;;;;;0.20;0.10;;;9.70;93.50;;;;;;19818549;29;20096;-52
2022/04/09 11:37:12;;;;;;;1.63;0.10;;;10.50;91.70;;;;;;19829607;29;20195;-52
2022/04/09 11:47:17;;;;;;;0.60;0.20;;;9.80;93.70;;;;;;19844623;29;20579;-54
2022/04/09 11:57:20;;;;;;;0.03;0.00;;;9.30;94.20;;;;;;19842030;29;20055;-53
2022/04/09 12:07:27;;;;;;;1.42;0.08;;;9.10;92.70;;;;;;19841230;29;20047;-55
2022/04/09 12:17:35;;;;;;;0.00;0.00;;;9.10;93.70;;;;;;19807294;29;20127;-51
2022/04/09 12:27:46;;;;;;;0.03;0.00;;;8.20;92.00;;;;;;19802952;29;20108;-49
2022/04/09 12:37:50;;;;;;;0.17;0.07;;;7.20;92.00;;;;;;19821005;29;20042;-51
2022/04/09 12:47:56;;;;;;;0.77;0.00;;;6.40;94.60;;;;;;19813303;29;20296;-49
2022/04/09 12:58:01;;;;;;;0.13;0.10;;;6.40;97.90;;;;;;19810624;29;20086;-52
2022/04/09 13:08:07;;;;;;;0.10;0.10;;;6.10;97.00;;;;;;19818146;29;20074;-57
2022/04/09 13:18:12;;;;;;;1.38;0.25;;;5.80;95.00;;;;;;19824598;29;20069;-54
2022/04/09 13:28:15;;;;;;;0.10;0.10;;;7.00;92.90;;;;;;19887209;29;20066;-57
2022/04/09 13:38:17;;;;;;;0.30;0.10;;;6.70;93.60;;;;;;19863177;29;20066;-52
2022/04/09 13:48:20;;;;;;;0.68;0.20;;;6.10;92.50;;;;;;19858102;29;20042;-53
2022/04/09 13:58:22;;;;;;;0.85;0.20;;;5.80;91.90;;;;;;19861340;29;20043;-57
2022/04/09 14:08:29;;;;;;;0.75;0.17;;;6.10;92.30;;;;;;19882530;29;20035;-48
2022/04/09 14:18:34;;;;;;;0.20;0.10;;;5.70;93.30;;;;;;19781548;29;20070;-57
2022/04/09 14:28:37;;;;;;;0.03;0.00;;;5.20;92.70;;;;;;19861625;29;20043;-52
2022/04/09 14:38:41;;;;;;;0.40;0.10;;;4.30;92.90;;;;;;19871383;29;20085;-57
2022/04/09 14:48:43;;;;;;;0.30;0.20;;;4.90;92.60;;;;;;19878713;29;20476;-53
2022/04/09 14:58:46;;;;;;;0.38;0.10;;;4.90;92.60;;;;;;19805350;29;20059;-55
2022/04/09 15:08:50;;;;;;;0.60;0.13;;;6.00;92.10;;;;;;19804977;29;20051;-54
2022/04/09 15:18:52;;;;;;;0.57;0.10;;;5.50;91.80;;;;;;19842452;29;20105;-57
2022/04/09 15:28:55;;;;;;;0.20;0.10;;;4.90;91.80;;;;;;19845675;29;20055;-49
2022/04/09 15:38:58;;;;;;;0.20;0.05;;;4.80;89.90;;;;;;19807452;29;20094;-48
2022/04/09 15:49:00;;;;;;;0.10;0.00;;;4.90;86.40;;;;;;19852558;29;20074;-48
2022/04/09 15:59:03;;;;;;;0.38;0.10;;;4.60;85.60;;;;;;19875582;29;20128;-50
2022/04/09 16:09:06;;;;;;;0.03;0.03;;;4.80;82.80;;;;;;19867743;29;20046;-49
2022/04/09 16:19:09;;;;;;;0.05;0.03;;;4.40;80.20;;;;;;19863104;29;20559;-51
2022/04/09 16:29:12;;;;;;;0.52;0.03;;;4.50;78.00;;;;;;19815361;29;20043;-51
2022/04/09 16:39:17;;;;;;;0.20;0.10;;;4.60;77.40;;;;;;19798789;29;20042;-48
2022/04/09 16:49:19;;;;;;;0.63;0.10;;;4.40;73.30;;;;;;19840236;29;20043;-57
2022/04/09 16:59:22;;;;;;;0.75;0.20;;;4.30;72.60;;;;;;19836378;29;20063;-50
2022/04/09 17:09:26;;;;;;;0.10;0.00;;;4.20;71.40;;;;;;19834253;29;20528;-49
2022/04/09 17:19:29;;;;;;;0.47;0.08;;;4.20;69.00;;;;;;19833301;29;20475;-57
2022/04/09 17:29:32;;;;;;;0.25;0.10;;;4.20;66.30;;;;;;19838849;29;20096;-53
2022/04/09 17:39:41;;;;;;;0.77;0.20;;;4.20;64.90;;;;;;19860667;29;20095;-49
2022/04/09 17:49:44;;;;;;;1.38;0.20;;;4.10;64.00;;;;;;19847072;29;20103;-57
2022/04/09 17:59:47;;;;;;;0.35;0.10;;;4.00;63.40;;;;;;19883832;29;20404;-48
2022/04/09 18:09:50;;;;;;;0.95;0.10;;;3.90;64.10;;;;;;19855572;29;20035;-51
2022/04/09 18:19:53;;;;;;;1.00;0.20;;;3.90;63.20;;;;;;19846432;29;20096;-50
2022/04/09 18:29:55;;;;;;;0.43;0.20;;;3.70;63.50;;;;;;19821755;29;20100;-51
2022/04/09 18:39:58;;;;;;;0.60;0.17;;;3.60;63.80;;;;;;19881385;29;20047;-57
2022/04/09 18:50:05;;;;;;;0.63;0.30;;;3.50;63.20;;;;;;19855700;29;20411;-56
2022/04/09 19:00:08;;;;;;;0.95;0.10;;;3.40;62.60;;;;;;19805354;29;20521;-51
2022/04/09 19:10:14;;;;;;;0.77;0.20;;;3.30;64.40;;;;;;19804563;29;20047;-50
2022/04/09 19:20:17;;;;;;;0.40;0.20;;;3.10;63.40;;;;;;19826839;29;20043;-58
2022/04/09 19:30:20;;;;;;;0.38;0.20;;;3.10;63.00;;;;;;19845346;29;20105;-58
2022/04/09 19:40:23;;;;;;;0.32;0.13;;;2.90;62.90;;;;;;19816057;29;20499;-52
2022/04/09 19:50:26;;;;;;;0.55;0.20;;;2.70;63.90;;;;;;19863446;29;20067;-48
2022/04/09 20:00:28;;;;;;;0.40;0.20;;;2.60;64.60;;;;;;19800479;29;20059;-49
2022/04/09 20:10:32;;;;;;;0.98;0.20;;;2.30;64.90;;;;;;19864804;29;20398;-58
2022/04/09 20:20:35;;;;;;;0.95;0.10;;;1.90;66.70;;;;;;19828977;29;20103;-58
2022/04/09 20:30:40;;;;;;;1.05;0.30;;;1.70;67.30;;;;;;19819076;29;20096;-50
2022/04/09 20:40:46;;;;;;;0.20;0.10;;;1.40;70.40;;;;;;19865101;29;20043;-49
2022/04/09 20:50:51;;;;;;;0.73;0.20;;;1.30;69.40;;;;;;19855177;29;20194;-49
2022/04/09 21:00:53;;;;;;;0.80;0.25;;;1.10;69.70;;;;;;19845783;29;20063;-49
2022/04/09 21:10:57;;;;;;;0.50;0.15;;;0.80;70.90;;;;;;19805986;29;20460;-51
2022/04/09 21:21:00;;;;;;;0.55;0.10;;;0.70;72.10;;;;;;19812406;29;20047;-48
2022/04/09 21:31:03;;;;;;;0.60;0.10;;;0.70;71.10;;;;;;19811799;29;20047;-58
2022/04/09 21:41:09;;;;;;;0.50;0.10;;;;;;;;;;19845253;29;20047;-48
2022/04/09 21:51:12;;;;;;;0.55;0.10;;;0.40;94.40;;;;;;19829097;29;20404;-49
2022/04/09 22:01:14;;;;;;;0.80;0.30;;;-0.30;76.80;;;;;;19881381;29;20058;-57
2022/04/09 22:11:18;;;;;;;0.47;0.20;;;-0.10;75.60;;;;;;19861562;29;20107;-47
2022/04/09 22:21:21;;;;;;;0.50;0.10;;;-0.60;79.20;;;;;;19851681;29;20042;-58
2022/04/09 22:31:24;;;;;;;0.35;0.10;;;-1.10;81.40;;;;;;19823515;29;20136;-47
2022/04/09 22:41:27;;;;;;;0.82;0.10;;;-1.50;83.00;;;;;;19859627;29;20452;-48
2022/04/09 22:51:30;;;;;;;0.55;0.20;;;-1.80;85.10;;;;;;19843436;29;20131;-48
2022/04/09 23:01:33;;;;;;;1.00;0.25;;;-2.00;88.00;;;;;;19842061;29;20066;-51
2022/04/09 23:11:36;;;;;;;0.45;0.17;;;-2.00;85.30;;;;;;19850676;29;20124;-47
2022/04/09 23:21:39;;;;;;;0.40;0.10;;;-2.00;87.10;;;;;;19865326;29;20030;-51
2022/04/09 23:31:41;;;;;;;0.10;0.00;;;-2.10;84.90;;;;;;19817036;29;20514;-50
2022/04/09 23:41:44;;;;;;;0.20;0.15;;;-1.80;85.50;;;;;;19802791;29;20043;-49
2022/04/09 23:51:46;;;;;;;1.08;0.13;;;-1.70;84.40;;;;;;19847022;29;20461;-50
